sensor_id;sensor_type;location;lat;lon;timestamp;pressure;altitude;pressure_sealevel;temperature;humidity
61506;BME280;47366;51.916;4.574;2023-03-01T00:00:10;103347.06;;;1.88;75.30
61506;BME280;47366;51.916;4.574;2023-03-01T00:02:36;103341.69;;;1.85;75.11
61506;BME280;47366;51.916;4.574;2023-03-01T00:05:02;103332.72;;;1.83;75.20
61506;BME280;47366;51.916;4.574;2023-03-01T00:07:28;103331.84;;;1.82;75.00
61506;BME280;47366;51.916;4.574;2023-03-01T00:09:53;103328.19;;;1.76;76.12
61506;BME280;47366;51.916;4.574;2023-03-01T00:12:19;103320.97;;;1.72;76.00
61506;BME280;47366;51.916;4.574;2023-03-01T00:14:44;103324.56;;;1.72;74.43
61506;BME280;47366;51.916;4.574;2023-03-01T00:17:09;103329.00;;;1.70;75.80
61506;BME280;47366;51.916;4.574;2023-03-01T00:19:35;103333.38;;;1.66;74.93
61506;BME280;47366;51.916;4.574;2023-03-01T00:22:00;103330.69;;;1.66;76.54
61506;BME280;47366;51.916;4.574;2023-03-01T00:24:26;103321.72;;;1.61;76.77
61506;BME280;47366;51.916;4.574;2023-03-01T00:26:54;103320.00;;;1.65;77.04
61506;BME280;47366;51.916;4.574;2023-03-01T00:29:24;103313.75;;;1.64;76.04
61506;BME280;47366;51.916;4.574;2023-03-01T00:31:49;103320.00;;;1.66;75.82
61506;BME280;47366;51.916;4.574;2023-03-01T00:34:15;103317.34;;;1.65;75.70
61506;BME280;47366;51.916;4.574;2023-03-01T00:36:40;103321.75;;;1.63;76.44
61506;BME280;47366;51.916;4.574;2023-03-01T00:39:11;103318.19;;;1.62;76.76
61506;BME280;47366;51.916;4.574;2023-03-01T00:41:37;103314.59;;;1.62;76.56
61506;BME280;47366;51.916;4.574;2023-03-01T00:44:02;103327.09;;;1.64;76.97
61506;BME280;47366;51.916;4.574;2023-03-01T00:46:27;103325.31;;;1.63;77.10
61506;BME280;47366;51.916;4.574;2023-03-01T00:48:55;103328.03;;;1.66;76.26
61506;BME280;47366;51.916;4.574;2023-03-01T00:51:27;103322.69;;;1.65;75.84
61506;BME280;47366;51.916;4.574;2023-03-01T00:53:54;103316.38;;;1.60;76.66
61506;BME280;47366;51.916;4.574;2023-03-01T00:56:22;103313.75;;;1.64;76.16
61506;BME280;47366;51.916;4.574;2023-03-01T00:58:47;103318.19;;;1.62;76.17
61506;BME280;47366;51.916;4.574;2023-03-01T01:01:14;103319.94;;;1.60;76.72
61506;BME280;47366;51.916;4.574;2023-03-01T01:03:52;103314.56;;;1.59;76.90
61506;BME280;47366;51.916;4.574;2023-03-01T01:06:24;103310.09;;;1.59;76.46
61506;BME280;47366;51.916;4.574;2023-03-01T01:08:50;103311.88;;;1.59;76.41
61506;BME280;47366;51.916;4.574;2023-03-01T01:11:16;103314.59;;;1.60;76.67
61506;BME280;47366;51.916;4.574;2023-03-01T01:13:44;103319.88;;;1.57;76.67
61506;BME280;47366;51.916;4.574;2023-03-01T01:16:10;103311.84;;;1.57;76.64
61506;BME280;47366;51.916;4.574;2023-03-01T01:18:35;103312.75;;;1.56;76.55
61506;BME280;47366;51.916;4.574;2023-03-01T01:21:09;103317.19;;;1.56;76.97
61506;BME280;47366;51.916;4.574;2023-03-01T01:23:36;103314.47;;;1.53;76.68
61506;BME280;47366;51.916;4.574;2023-03-01T01:26:23;103303.72;;;1.48;78.01
61506;BME280;47366;51.916;4.574;2023-03-01T01:28:49;103300.13;;;1.46;77.30
61506;BME280;47366;51.916;4.574;2023-03-01T01:31:15;103296.56;;;1.47;77.44
61506;BME280;47366;51.916;4.574;2023-03-01T01:33:41;103289.38;;;1.43;77.43
61506;BME280;47366;51.916;4.574;2023-03-01T01:36:07;103289.38;;;1.43;78.03
61506;BME280;47366;51.916;4.574;2023-03-01T01:38:34;103283.22;;;1.45;77.57
61506;BME280;47366;51.916;4.574;2023-03-01T01:41:00;103271.53;;;1.39;77.20
61506;BME280;47366;51.916;4.574;2023-03-01T01:43:30;103272.38;;;1.38;78.20
61506;BME280;47366;51.916;4.574;2023-03-01T01:46:02;103262.56;;;1.34;78.51
61506;BME280;47366;51.916;4.574;2023-03-01T01:48:40;103253.56;;;1.28;78.05
61506;BME280;47366;51.916;4.574;2023-03-01T01:51:10;103245.50;;;1.25;78.67
61506;BME280;47366;51.916;4.574;2023-03-01T01:53:37;103253.50;;;1.25;78.57
61506;BME280;47366;51.916;4.574;2023-03-01T01:56:07;103259.78;;;1.27;79.88
61506;BME280;47366;51.916;4.574;2023-03-01T01:58:34;103258.00;;;1.26;78.85
61506;BME280;47366;51.916;4.574;2023-03-01T02:01:00;103249.06;;;1.26;79.48
61506;BME280;47366;51.916;4.574;2023-03-01T02:03:30;103252.66;;;1.26;79.91
61506;BME280;47366;51.916;4.574;2023-03-01T02:06:06;103258.97;;;1.32;79.07
61506;BME280;47366;51.916;4.574;2023-03-01T02:08:37;103249.09;;;1.27;79.63
61506;BME280;47366;51.916;4.574;2023-03-01T02:11:04;103250.88;;;1.27;79.18
61506;BME280;47366;51.916;4.574;2023-03-01T02:13:31;103249.94;;;1.25;79.95
61506;BME280;47366;51.916;4.574;2023-03-01T02:15:57;103248.97;;;1.21;80.17
61506;BME280;47366;51.916;4.574;2023-03-01T02:18:24;103249.06;;;1.24;79.50
61506;BME280;47366;51.916;4.574;2023-03-01T02:23:33;103238.31;;;1.21;79.83
61506;BME280;47366;51.916;4.574;2023-03-01T02:26:07;103243.69;;;1.23;80.32
61506;BME280;47366;51.916;4.574;2023-03-01T02:28:38;103235.69;;;1.23;79.57
61506;BME280;47366;51.916;4.574;2023-03-01T02:31:07;103236.56;;;1.22;79.21
61506;BME280;47366;51.916;4.574;2023-03-01T02:34:20;103242.69;;;1.16;79.52
61506;BME280;47366;51.916;4.574;2023-03-01T02:36:56;103230.19;;;1.12;79.79
61506;BME280;47366;51.916;4.574;2023-03-01T02:39:29;103232.00;;;1.15;79.69
61506;BME280;47366;51.916;4.574;2023-03-01T02:41:57;103234.66;;;1.15;80.10
61506;BME280;47366;51.916;4.574;2023-03-01T02:44:24;103237.31;;;1.13;80.22
61506;BME280;47366;51.916;4.574;2023-03-01T02:46:52;103237.25;;;1.10;79.54
61506;BME280;47366;51.916;4.574;2023-03-01T02:49:27;103235.47;;;1.11;79.09
61506;BME280;47366;51.916;4.574;2023-03-01T02:55:00;103219.41;;;1.06;79.68
61506;BME280;47366;51.916;4.574;2023-03-01T02:57:27;103225.63;;;1.06;79.49
61506;BME280;47366;51.916;4.574;2023-03-01T02:59:54;103223.84;;;1.07;79.54
61506;BME280;47366;51.916;4.574;2023-03-01T03:02:24;103220.28;;;1.06;79.25
61506;BME280;47366;51.916;4.574;2023-03-01T03:05:15;103223.75;;;1.02;78.90
61506;BME280;47366;51.916;4.574;2023-03-01T03:07:44;103226.44;;;1.01;79.01
61506;BME280;47366;51.916;4.574;2023-03-01T03:10:13;103213.88;;;0.95;79.21
61506;BME280;47366;51.916;4.574;2023-03-01T03:12:40;103214.84;;;0.99;79.41
61506;BME280;47366;51.916;4.574;2023-03-01T03:15:07;103206.78;;;0.96;79.41
61506;BME280;47366;51.916;4.574;2023-03-01T03:17:37;103206.72;;;0.93;78.99
61506;BME280;47366;51.916;4.574;2023-03-01T03:20:04;103208.47;;;0.91;78.98
61506;BME280;47366;51.916;4.574;2023-03-01T03:22:31;103211.13;;;0.89;79.02
61506;BME280;47366;51.916;4.574;2023-03-01T03:24:56;103205.75;;;0.86;78.46
61506;BME280;47366;51.916;4.574;2023-03-01T03:27:22;103203.03;;;0.84;78.86
61506;BME280;47366;51.916;4.574;2023-03-01T03:29:47;103203.03;;;0.84;78.75
61506;BME280;47366;51.916;4.574;2023-03-01T03:32:12;103199.44;;;0.82;78.54
61506;BME280;47366;51.916;4.574;2023-03-01T03:34:38;103202.91;;;0.78;78.49
61506;BME280;47366;51.916;4.574;2023-03-01T03:37:03;103200.25;;;0.78;78.21
61506;BME280;47366;51.916;4.574;2023-03-01T03:39:29;103198.41;;;0.74;78.01
61506;BME280;47366;51.916;4.574;2023-03-01T03:42:00;103204.66;;;0.75;78.50
61506;BME280;47366;51.916;4.574;2023-03-01T03:44:25;103205.50;;;0.74;78.50
61506;BME280;47366;51.916;4.574;2023-03-01T03:46:50;103194.78;;;0.69;78.17
61506;BME280;47366;51.916;4.574;2023-03-01T03:49:16;103202.78;;;0.69;77.92
61506;BME280;47366;51.916;4.574;2023-03-01T03:51:41;103189.31;;;0.63;78.49
61506;BME280;47366;51.916;4.574;2023-03-01T03:54:06;103192.00;;;0.63;78.37
61506;BME280;47366;51.916;4.574;2023-03-01T03:56:32;103198.25;;;0.65;78.21
61506;BME280;47366;51.916;4.574;2023-03-01T03:58:57;103199.16;;;0.66;78.69
61506;BME280;47366;51.916;4.574;2023-03-01T04:01:22;103183.94;;;0.61;78.80
61506;BME280;47366;51.916;4.574;2023-03-01T04:03:48;103183.94;;;0.61;78.60
61506;BME280;47366;51.916;4.574;2023-03-01T04:06:14;103190.19;;;0.60;78.32
61506;BME280;47366;51.916;4.574;2023-03-01T04:08:39;103187.50;;;0.60;78.49
61506;BME280;47366;51.916;4.574;2023-03-01T04:11:05;103187.47;;;0.59;78.25
61506;BME280;47366;51.916;4.574;2023-03-01T04:13:51;103181.19;;;0.55;78.27
61506;BME280;47366;51.916;4.574;2023-03-01T04:16:17;103192.66;;;0.51;78.28
61506;BME280;47366;51.916;4.574;2023-03-01T04:18:43;103192.63;;;0.50;78.62
61506;BME280;47366;51.916;4.574;2023-03-01T04:21:09;103191.78;;;0.51;78.51
61506;BME280;47366;51.916;4.574;2023-03-01T04:23:36;103191.69;;;0.48;78.47
61506;BME280;47366;51.916;4.574;2023-03-01T04:26:02;103195.25;;;0.47;78.43
61506;BME280;47366;51.916;4.574;2023-03-01T04:28:41;103197.00;;;0.45;78.40
61506;BME280;47366;51.916;4.574;2023-03-01T04:31:16;103197.00;;;0.45;78.36
61506;BME280;47366;51.916;4.574;2023-03-01T04:33:48;103179.09;;;0.37;78.94
61506;BME280;47366;51.916;4.574;2023-03-01T04:36:15;103188.91;;;0.40;78.60
61506;BME280;47366;51.916;4.574;2023-03-01T04:38:41;103196.00;;;0.39;78.73
61506;BME280;47366;51.916;4.574;2023-03-01T04:41:09;103183.47;;;0.35;78.70
61506;BME280;47366;51.916;4.574;2023-03-01T04:43:36;103189.69;;;0.34;78.75
61506;BME280;47366;51.916;4.574;2023-03-01T04:46:08;103173.66;;;0.31;78.96
61506;BME280;47366;51.916;4.574;2023-03-01T04:48:36;103162.03;;;0.28;79.15
61506;BME280;47366;51.916;4.574;2023-03-01T04:51:02;103177.19;;;0.30;79.00
61506;BME280;47366;51.916;4.574;2023-03-01T04:53:27;103162.00;;;0.26;79.23
61506;BME280;47366;51.916;4.574;2023-03-01T04:55:54;103166.41;;;0.24;79.20
61506;BME280;47366;51.916;4.574;2023-03-01T04:58:22;103160.06;;;0.19;78.84
61506;BME280;47366;51.916;4.574;2023-03-01T05:00:47;103152.97;;;0.18;78.96
61506;BME280;47366;51.916;4.574;2023-03-01T05:03:12;103161.84;;;0.18;79.20
61506;BME280;47366;51.916;4.574;2023-03-01T05:05:43;103159.19;;;0.18;78.92
61506;BME280;47366;51.916;4.574;2023-03-01T05:08:09;103153.84;;;0.17;78.89
61506;BME280;47366;51.916;4.574;2023-03-01T05:10:43;103143.09;;;0.12;78.77
61506;BME280;47366;51.916;4.574;2023-03-01T05:13:09;103150.22;;;0.13;78.99
61506;BME280;47366;51.916;4.574;2023-03-01T05:15:34;103145.69;;;0.09;79.19
61506;BME280;47366;51.916;4.574;2023-03-01T05:18:01;103135.78;;;0.01;78.94
61506;BME280;47366;51.916;4.574;2023-03-01T05:20:27;103149.19;;;0.07;79.35
61506;BME280;47366;51.916;4.574;2023-03-01T05:22:57;103138.53;;;0.07;79.22
61506;BME280;47366;51.916;4.574;2023-03-01T05:25:24;103141.19;;;0.07;79.00
61506;BME280;47366;51.916;4.574;2023-03-01T05:27:50;103128.72;;;0.04;79.29
61506;BME280;47366;51.916;4.574;2023-03-01T05:30:15;103121.59;;;0.03;79.18
61506;BME280;47366;51.916;4.574;2023-03-01T05:32:44;103115.38;;;0.03;79.35
61506;BME280;47366;51.916;4.574;2023-03-01T05:35:12;103120.69;;;0.01;79.03
61506;BME280;47366;51.916;4.574;2023-03-01T05:37:45;103108.25;;;0.02;79.33
61506;BME280;47366;51.916;4.574;2023-03-01T05:40:15;103110.06;;;0.03;78.93
61506;BME280;47366;51.916;4.574;2023-03-01T05:42:47;103090.41;;;-0.03;78.82
61506;BME280;47366;51.916;4.574;2023-03-01T05:45:14;103102.00;;;-0.01;78.98
61506;BME280;47366;51.916;4.574;2023-03-01T05:47:41;103096.66;;;-0.01;79.43
61506;BME280;47366;51.916;4.574;2023-03-01T05:50:13;103103.75;;;-0.01;79.53
61506;BME280;47366;51.916;4.574;2023-03-01T05:52:38;103105.50;;;-0.03;78.95
61506;BME280;47366;51.916;4.574;2023-03-01T05:55:04;103102.78;;;-0.06;78.93
61506;BME280;47366;51.916;4.574;2023-03-01T05:57:29;103101.91;;;-0.07;79.13
61506;BME280;47366;51.916;4.574;2023-03-01T05:59:55;103109.91;;;-0.05;78.96
61506;BME280;47366;51.916;4.574;2023-03-01T06:02:20;103106.25;;;-0.12;78.61
61506;BME280;47366;51.916;4.574;2023-03-01T06:04:45;103112.47;;;-0.10;78.87
61506;BME280;47366;51.916;4.574;2023-03-01T06:07:11;103109.84;;;-0.08;79.56
61506;BME280;47366;51.916;4.574;2023-03-01T06:09:36;103102.59;;;-0.15;79.41
61506;BME280;47366;51.916;4.574;2023-03-01T06:12:01;103108.88;;;-0.13;78.96
61506;BME280;47366;51.916;4.574;2023-03-01T06:14:27;103096.34;;;-0.17;79.03
61506;BME280;47366;51.916;4.574;2023-03-01T06:16:52;103101.66;;;-0.17;79.35
61506;BME280;47366;51.916;4.574;2023-03-01T06:19:17;103106.09;;;-0.18;79.36
61506;BME280;47366;51.916;4.574;2023-03-01T06:21:43;103106.94;;;-0.20;79.27
61506;BME280;47366;51.916;4.574;2023-03-01T06:24:08;103116.72;;;-0.21;78.96
61506;BME280;47366;51.916;4.574;2023-03-01T06:26:34;103118.44;;;-0.23;78.83
61506;BME280;47366;51.916;4.574;2023-03-01T06:28:59;103108.63;;;-0.24;78.75
61506;BME280;47366;51.916;4.574;2023-03-01T06:31:24;103118.38;;;-0.26;78.96
61506;BME280;47366;51.916;4.574;2023-03-01T06:33:50;103116.53;;;-0.29;79.01
61506;BME280;47366;51.916;4.574;2023-03-01T06:36:15;103113.84;;;-0.30;78.77
61506;BME280;47366;51.916;4.574;2023-03-01T06:38:44;103120.91;;;-0.32;78.85
61506;BME280;47366;51.916;4.574;2023-03-01T06:41:09;103113.81;;;-0.33;79.06
61506;BME280;47366;51.916;4.574;2023-03-01T06:43:34;103122.59;;;-0.37;78.99
61506;BME280;47366;51.916;4.574;2023-03-01T06:46:00;103114.50;;;-0.42;79.05
61506;BME280;47366;51.916;4.574;2023-03-01T06:48:26;103124.38;;;-0.38;79.21
61506;BME280;47366;51.916;4.574;2023-03-01T06:50:51;103127.88;;;-0.39;79.18
61506;BME280;47366;51.916;4.574;2023-03-01T06:53:17;103125.13;;;-0.44;79.10
61506;BME280;47366;51.916;4.574;2023-03-01T06:55:42;103126.00;;;-0.43;79.39
61506;BME280;47366;51.916;4.574;2023-03-01T06:58:08;103123.44;;;-0.40;79.21
61506;BME280;47366;51.916;4.574;2023-03-01T07:00:34;103119.78;;;-0.44;79.17
61506;BME280;47366;51.916;4.574;2023-03-01T07:03:00;103121.63;;;-0.41;79.10
61506;BME280;47366;51.916;4.574;2023-03-01T07:05:27;103120.75;;;-0.40;79.21
61506;BME280;47366;51.916;4.574;2023-03-01T07:07:53;103119.00;;;-0.39;79.08
61506;BME280;47366;51.916;4.574;2023-03-01T07:10:19;103117.25;;;-0.37;79.19
61506;BME280;47366;51.916;4.574;2023-03-01T07:12:44;103128.84;;;-0.34;78.84
61506;BME280;47366;51.916;4.574;2023-03-01T07:15:11;103123.56;;;-0.32;78.56
61506;BME280;47366;51.916;4.574;2023-03-01T07:17:36;103123.66;;;-0.28;79.01
61506;BME280;47366;51.916;4.574;2023-03-01T07:20:02;103123.78;;;-0.23;78.67
61506;BME280;47366;51.916;4.574;2023-03-01T07:22:27;103118.44;;;-0.22;78.36
61506;BME280;47366;51.916;4.574;2023-03-01T07:24:53;103116.81;;;-0.15;78.36
61506;BME280;47366;51.916;4.574;2023-03-01T07:27:18;103116.06;;;-0.08;78.40
61506;BME280;47366;51.916;4.574;2023-03-01T07:29:44;103122.47;;;0.02;78.04
61506;BME280;47366;51.916;4.574;2023-03-01T07:32:10;103118.16;;;0.07;77.87
61506;BME280;47366;51.916;4.574;2023-03-01T07:34:35;103117.56;;;0.25;77.65
61506;BME280;47366;51.916;4.574;2023-03-01T07:37:01;103116.00;;;0.38;77.72
61506;BME280;47366;51.916;4.574;2023-03-01T07:39:26;103124.28;;;0.55;77.49
61506;BME280;47366;51.916;4.574;2023-03-01T07:41:51;103113.06;;;0.76;77.00
61506;BME280;47366;51.916;4.574;2023-03-01T07:44:17;103113.41;;;0.96;77.02
61506;BME280;47366;51.916;4.574;2023-03-01T07:46:43;103115.41;;;1.12;76.21
61506;BME280;47366;51.916;4.574;2023-03-01T07:49:09;103125.53;;;1.38;75.13
61506;BME280;47366;51.916;4.574;2023-03-01T07:51:35;103118.59;;;1.52;75.09
61506;BME280;47366;51.916;4.574;2023-03-01T07:54:00;103123.28;;;1.72;74.62
61506;BME280;47366;51.916;4.574;2023-03-01T07:56:26;103127.91;;;1.85;74.06
61506;BME280;47366;51.916;4.574;2023-03-01T07:58:51;103124.44;;;1.94;74.30
61506;BME280;47366;51.916;4.574;2023-03-01T08:01:19;103114.75;;;2.03;73.36
61506;BME280;47366;51.916;4.574;2023-03-01T08:03:45;103117.56;;;2.16;73.53
61506;BME280;47366;51.916;4.574;2023-03-01T08:06:12;103100.66;;;2.21;73.10
61506;BME280;47366;51.916;4.574;2023-03-01T08:08:38;103105.22;;;2.30;72.49
61506;BME280;47366;51.916;4.574;2023-03-01T08:11:05;103121.28;;;2.34;72.41
61506;BME280;47366;51.916;4.574;2023-03-01T08:13:32;103116.03;;;2.45;72.06
61506;BME280;47366;51.916;4.574;2023-03-01T08:16:06;103123.28;;;2.59;71.97
61506;BME280;47366;51.916;4.574;2023-03-01T08:18:31;103110.88;;;2.65;70.79
61506;BME280;47366;51.916;4.574;2023-03-01T08:21:09;103121.72;;;2.85;70.12
61506;BME280;47366;51.916;4.574;2023-03-01T08:23:35;103117.34;;;3.00;69.23
61506;BME280;47366;51.916;4.574;2023-03-01T08:28:34;103100.59;;;3.37;69.10
61506;BME280;47366;51.916;4.574;2023-03-01T08:31:01;103099.78;;;3.57;68.10
61506;BME280;47366;51.916;4.574;2023-03-01T08:33:27;103098.97;;;3.76;67.84
61506;BME280;47366;51.916;4.574;2023-03-01T08:35:52;103101.72;;;3.93;67.14
61506;BME280;47366;51.916;4.574;2023-03-01T08:38:17;103099.06;;;4.13;67.21
61506;BME280;47366;51.916;4.574;2023-03-01T08:40:43;103106.22;;;4.23;65.86
61506;BME280;47366;51.916;4.574;2023-03-01T08:43:08;103104.44;;;4.27;64.71
61506;BME280;47366;51.916;4.574;2023-03-01T08:45:33;103101.78;;;4.36;65.21
61506;BME280;47366;51.916;4.574;2023-03-01T08:47:59;103108.03;;;4.52;64.81
61506;BME280;47366;51.916;4.574;2023-03-01T08:50:24;103105.34;;;4.54;63.19
61506;BME280;47366;51.916;4.574;2023-03-01T08:52:50;103098.19;;;4.68;63.49
61506;BME280;47366;51.916;4.574;2023-03-01T08:55:16;103089.25;;;4.77;63.54
61506;BME280;47366;51.916;4.574;2023-03-01T08:57:43;103091.91;;;4.69;61.58
61506;BME280;47366;51.916;4.574;2023-03-01T09:00:09;103090.16;;;4.70;62.50
61506;BME280;47366;51.916;4.574;2023-03-01T09:02:36;103084.78;;;4.73;62.77
61506;BME280;47366;51.916;4.574;2023-03-01T09:05:02;103090.13;;;4.73;61.92
61506;BME280;47366;51.916;4.574;2023-03-01T09:07:27;103085.66;;;4.68;62.08
61506;BME280;47366;51.916;4.574;2023-03-01T09:09:55;103082.09;;;4.77;62.89
61506;BME280;47366;51.916;4.574;2023-03-01T09:12:21;103069.53;;;4.67;63.10
61506;BME280;47366;51.916;4.574;2023-03-01T09:14:49;103074.91;;;4.73;63.62
61506;BME280;47366;51.916;4.574;2023-03-01T09:17:15;103074.91;;;4.82;63.51
61506;BME280;47366;51.916;4.574;2023-03-01T09:19:40;103066.84;;;4.92;63.74
61506;BME280;47366;51.916;4.574;2023-03-01T09:22:05;103071.28;;;4.97;62.94
61506;BME280;47366;51.916;4.574;2023-03-01T09:24:31;103065.88;;;5.16;63.60
61506;BME280;47366;51.916;4.574;2023-03-01T09:26:56;103062.22;;;5.29;62.85
61506;BME280;47366;51.916;4.574;2023-03-01T09:29:22;103047.84;;;5.47;63.31
61506;BME280;47366;51.916;4.574;2023-03-01T09:31:48;103053.13;;;5.65;62.85
61506;BME280;47366;51.916;4.574;2023-03-01T09:34:13;103058.38;;;5.85;61.96
61506;BME280;47366;51.916;4.574;2023-03-01T09:36:41;103051.13;;;6.04;60.74
61506;BME280;47366;51.916;4.574;2023-03-01T09:39:07;103049.16;;;6.26;60.60
61506;BME280;47366;51.916;4.574;2023-03-01T09:47:00;103047.81;;;6.75;57.01
61506;BME280;47366;51.916;4.574;2023-03-01T09:49:29;103045.84;;;6.92;58.99
61506;BME280;47366;51.916;4.574;2023-03-01T09:54:44;103041.53;;;7.50;57.85
61506;BME280;47366;51.916;4.574;2023-03-01T09:57:30;103048.31;;;7.79;57.45
61506;BME280;47366;51.916;4.574;2023-03-01T10:02:40;103049.69;;;8.11;56.55
61506;BME280;47366;51.916;4.574;2023-03-01T10:05:25;103035.16;;;8.18;53.44
61506;BME280;47366;51.916;4.574;2023-03-01T10:08:19;103032.19;;;8.33;55.47
61506;BME280;47366;51.916;4.574;2023-03-01T10:10:49;103035.50;;;8.52;55.44
61506;BME280;47366;51.916;4.574;2023-03-01T10:15:54;103020.00;;;8.63;53.88
61506;BME280;47366;51.916;4.574;2023-03-01T10:18:29;103015.13;;;8.82;53.20
61506;BME280;47366;51.916;4.574;2023-03-01T10:21:02;103023.13;;;8.88;52.26
61506;BME280;47366;51.916;4.574;2023-03-01T10:23:31;103014.72;;;9.02;51.81
61506;BME280;47366;51.916;4.574;2023-03-01T10:26:21;103017.84;;;9.27;54.15
61506;BME280;47366;51.916;4.574;2023-03-01T10:29:01;103018.47;;;9.39;52.94
61506;BME280;47366;51.916;4.574;2023-03-01T10:31:36;103012.09;;;9.43;52.47
61506;BME280;47366;51.916;4.574;2023-03-01T10:34:25;103010.03;;;9.54;50.96
61506;BME280;47366;51.916;4.574;2023-03-01T10:36:54;103016.31;;;9.56;50.38
61506;BME280;47366;51.916;4.574;2023-03-01T10:39:23;103008.78;;;9.69;51.63
61506;BME280;47366;51.916;4.574;2023-03-01T10:42:11;103004.88;;;9.82;52.00
61506;BME280;47366;51.916;4.574;2023-03-01T10:44:46;102992.34;;;9.78;52.87
61506;BME280;47366;51.916;4.574;2023-03-01T10:47:23;102989.84;;;9.69;50.10
61506;BME280;47366;51.916;4.574;2023-03-01T10:49:58;102994.16;;;9.77;51.71
61506;BME280;47366;51.916;4.574;2023-03-01T10:54:57;102989.84;;;9.30;48.65
61506;BME280;47366;51.916;4.574;2023-03-01T10:57:37;102983.09;;;9.49;50.24
61506;BME280;47366;51.916;4.574;2023-03-01T11:00:24;102970.47;;;9.48;51.30
61506;BME280;47366;51.916;4.574;2023-03-01T11:05:25;102963.09;;;9.55;49.29
61506;BME280;47366;51.916;4.574;2023-03-01T11:07:57;102955.72;;;9.63;50.23
61506;BME280;47366;51.916;4.574;2023-03-01T11:10:26;102954.78;;;9.64;47.78
61506;BME280;47366;51.916;4.574;2023-03-01T11:12:52;102952.09;;;9.63;48.18
61506;BME280;47366;51.916;4.574;2023-03-01T11:15:28;102956.22;;;9.79;48.84
61506;BME280;47366;51.916;4.574;2023-03-01T11:17:54;102942.09;;;10.04;50.32
61506;BME280;47366;51.916;4.574;2023-03-01T11:20:26;102947.44;;;10.05;47.96
61506;BME280;47366;51.916;4.574;2023-03-01T11:22:59;102934.69;;;10.10;47.56
61506;BME280;47366;51.916;4.574;2023-03-01T11:25:33;102931.53;;;10.27;48.22
61506;BME280;47366;51.916;4.574;2023-03-01T11:28:02;102925.28;;;10.25;46.77
61506;BME280;47366;51.916;4.574;2023-03-01T11:36:16;102930.94;;;10.50;44.70
61506;BME280;47366;51.916;4.574;2023-03-01T11:38:44;102929.56;;;10.68;47.97
61506;BME280;47366;51.916;4.574;2023-03-01T11:41:19;102929.41;;;10.73;47.68
61506;BME280;47366;51.916;4.574;2023-03-01T11:44:01;102924.25;;;10.63;44.53
61506;BME280;47366;51.916;4.574;2023-03-01T11:51:41;102921.69;;;10.59;45.07
61506;BME280;47366;51.916;4.574;2023-03-01T11:54:17;102915.88;;;10.73;46.06
61506;BME280;47366;51.916;4.574;2023-03-01T11:57:03;102910.38;;;10.74;44.36
61506;BME280;47366;51.916;4.574;2023-03-01T12:00:02;102901.00;;;10.86;45.37
61506;BME280;47366;51.916;4.574;2023-03-01T12:10:26;102897.78;;;10.73;44.40
61506;BME280;47366;51.916;4.574;2023-03-01T12:19:02;102882.38;;;11.03;44.54
61506;BME280;47366;51.916;4.574;2023-03-01T12:27:10;102872.31;;;11.09;44.40
61506;BME280;47366;51.916;4.574;2023-03-01T12:35:20;102859.97;;;11.26;43.69
61506;BME280;47366;51.916;4.574;2023-03-01T12:43:47;102849.56;;;11.13;44.13
61506;BME280;47366;51.916;4.574;2023-03-01T12:49:10;102851.97;;;10.94;41.25
61506;BME280;47366;51.916;4.574;2023-03-01T12:51:39;102853.41;;;11.05;44.05
61506;BME280;47366;51.916;4.574;2023-03-01T12:54:21;102851.81;;;10.98;43.45
61506;BME280;47366;51.916;4.574;2023-03-01T12:56:51;102857.06;;;11.04;43.68
61506;BME280;47366;51.916;4.574;2023-03-01T13:02:22;102857.03;;;11.06;41.23
61506;BME280;47366;51.916;4.574;2023-03-01T13:08:16;102856.66;;;11.17;42.96
61506;BME280;47366;51.916;4.574;2023-03-01T13:10:50;102851.06;;;11.23;43.46
61506;BME280;47366;51.916;4.574;2023-03-01T13:13:25;102835.41;;;11.31;42.88
61506;BME280;47366;51.916;4.574;2023-03-01T13:15:52;102835.22;;;11.37;42.67
61506;BME280;47366;51.916;4.574;2023-03-01T13:20:49;102819.38;;;11.23;43.94
61506;BME280;47366;51.916;4.574;2023-03-01T13:34:01;102803.69;;;10.77;42.29
61506;BME280;47366;51.916;4.574;2023-03-01T13:44:36;102786.94;;;10.33;43.83
61506;BME280;47366;51.916;4.574;2023-03-01T13:49:58;102783.03;;;10.10;45.19
61506;BME280;47366;51.916;4.574;2023-03-01T13:52:30;102785.44;;;9.90;45.45
61506;BME280;47366;51.916;4.574;2023-03-01T13:54:58;102770.44;;;9.76;44.64
61506;BME280;47366;51.916;4.574;2023-03-01T13:57:30;102773.50;;;9.64;44.76
61506;BME280;47366;51.916;4.574;2023-03-01T13:59:57;102758.59;;;9.48;46.11
61506;BME280;47366;51.916;4.574;2023-03-01T14:02:23;102751.53;;;9.42;46.15
61506;BME280;47366;51.916;4.574;2023-03-01T14:04:58;102761.81;;;9.28;44.60
61506;BME280;47366;51.916;4.574;2023-03-01T14:07:25;102759.59;;;9.08;46.00
61506;BME280;47366;51.916;4.574;2023-03-01T14:09:56;102743.56;;;9.00;44.94
61506;BME280;47366;51.916;4.574;2023-03-01T14:15:13;102742.69;;;9.00;45.79
61506;BME280;47366;51.916;4.574;2023-03-01T14:17:52;102747.44;;;8.88;46.80
61506;BME280;47366;51.916;4.574;2023-03-01T14:20:23;102736.84;;;8.79;46.40
61506;BME280;47366;51.916;4.574;2023-03-01T14:22:52;102736.91;;;8.78;45.42
61506;BME280;47366;51.916;4.574;2023-03-01T14:25:25;102723.53;;;8.71;45.83
61506;BME280;47366;51.916;4.574;2023-03-01T14:27:56;102726.22;;;8.73;46.09
61506;BME280;47366;51.916;4.574;2023-03-01T14:30:30;102716.41;;;8.69;46.35
61506;BME280;47366;51.916;4.574;2023-03-01T14:32:58;102704.69;;;8.70;46.79
61506;BME280;47366;51.916;4.574;2023-03-01T14:35:30;102702.88;;;8.70;46.76
61506;BME280;47366;51.916;4.574;2023-03-01T14:37:56;102703.78;;;8.69;46.58
61506;BME280;47366;51.916;4.574;2023-03-01T14:40:23;102693.03;;;8.68;46.07
61506;BME280;47366;51.916;4.574;2023-03-01T14:42:49;102689.66;;;8.58;46.08
61506;BME280;47366;51.916;4.574;2023-03-01T14:45:15;102694.88;;;8.64;46.22
61506;BME280;47366;51.916;4.574;2023-03-01T14:47:43;102688.38;;;8.73;46.64
61506;BME280;47366;51.916;4.574;2023-03-01T14:52:42;102680.13;;;8.79;46.61